Time;durP1;ratioP1;P1;durP2;ratioP2;P2;SDS_P1;SDS_P2;PMS_P1;PMS_P2;Temp;Humidity;BMP_temperature;BMP_pressure;BME280_temperature;BME280_humidity;BME280_pressure;Samples;Min_cycle;Max_cycle;Signal;HPM_P1;HPM_P2
2021/12/14 00:01:23;;;;;;;18.20;11.70;;;8.70;99.90;;;;;;5135407;27;20058;-88
2021/12/14 00:03:53;;;;;;;23.98;11.52;;;8.70;99.90;;;;;;5118021;27;20180;-88
2021/12/14 00:06:21;;;;;;;18.80;12.55;;;;;;;;;;5118618;27;20140;-88
2021/12/14 00:08:53;;;;;;;20.17;11.70;;;;;;;;;;5119105;27;20404;-88
2021/12/14 00:16:48;;;;;;;21.10;12.35;;;;;;;;;;5111815;27;20086;-88
2021/12/14 00:19:14;;;;;;;15.60;10.95;;;;;;;;;;5135221;27;20046;-88
2021/12/14 00:21:43;;;;;;;13.90;9.70;;;;;;;;;;5117993;27;20039;-88
2021/12/14 00:24:11;;;;;;;17.92;11.77;;;;;;;;;;5134482;27;20526;-87
2021/12/14 00:26:43;;;;;;;17.13;11.88;;;;;;;;;;5117597;27;20117;-88
2021/12/14 00:29:13;;;;;;;16.42;10.52;;;;;;;;;;5134914;27;20039;-88
2021/12/14 00:31:39;;;;;;;16.85;10.68;;;;;;;;;;5134788;27;20126;-88
2021/12/14 00:34:07;;;;;;;18.75;11.98;;;;;;;;;;5135955;27;20136;-88
2021/12/14 00:36:35;;;;;;;18.90;13.32;;;;;;;;;;5135470;27;20099;-88
2021/12/14 00:39:04;;;;;;;15.95;11.50;;;;;;;;;;5117959;27;20106;-88
2021/12/14 00:41:33;;;;;;;15.52;10.80;;;8.40;99.90;;;;;;5117886;27;20454;-88
2021/12/14 00:43:59;;;;;;;17.88;12.82;;;;;;;;;;5118995;27;20089;-88
2021/12/14 00:46:26;;;;;;;16.25;11.15;;;;;;;;;;5119267;27;20039;-88
2021/12/14 00:48:52;;;;;;;21.70;12.27;;;;;;;;;;5136260;27;20078;-88
2021/12/14 00:51:26;;;;;;;20.20;12.93;;;;;;;;;;5135683;27;20055;-87
2021/12/14 00:53:52;;;;;;;17.58;10.75;;;;;;;;;;5134995;27;20047;-87
2021/12/14 00:56:19;;;;;;;16.48;10.40;;;;;;;;;;5119480;27;20071;-87
2021/12/14 00:58:45;;;;;;;18.63;10.50;;;;;;;;;;5124186;27;20134;-87
2021/12/14 01:01:14;;;;;;;13.63;9.75;;;;;;;;;;5121052;27;20089;-87
2021/12/14 01:03:42;;;;;;;18.45;10.82;;;;;;;;;;5136706;27;20054;-87
2021/12/14 01:06:10;;;;;;;13.38;10.18;;;;;;;;;;5137615;27;20039;-87
2021/12/14 01:08:40;;;;;;;19.58;11.85;;;;;;;;;;5136661;27;20078;-88
2021/12/14 01:11:11;;;;;;;21.50;12.77;;;;;;;;;;5134281;27;20047;-87
2021/12/14 01:13:43;;;;;;;17.00;10.98;;;;;;;;;;5117013;27;20046;-87
2021/12/14 01:16:32;;;;;;;19.40;12.15;;;;;;;;;;5117305;27;20116;-86
2021/12/14 01:19:13;;;;;;;23.00;12.75;;;;;;;;;;5134169;27;20072;-87
2021/12/14 01:22:00;;;;;;;18.13;11.77;;;8.60;99.90;;;;;;5134627;27;20108;-88
2021/12/14 01:27:10;;;;;;;16.70;10.52;;;8.50;99.90;;;;;;5134178;27;20145;-87
2021/12/14 01:29:37;;;;;;;16.02;11.65;;;;;;;;;;5133378;27;20035;-87
2021/12/14 01:32:04;;;;;;;17.15;11.57;;;8.30;99.90;;;;;;5116888;27;20039;-87
2021/12/14 01:34:32;;;;;;;18.25;12.18;;;;;;;;;;5133963;27;20043;-87
2021/12/14 01:37:02;;;;;;;17.45;12.55;;;;;;;;;;5117259;28;20039;-87
2021/12/14 01:39:48;;;;;;;22.27;11.90;;;;;;;;;;5134255;28;20069;-87
2021/12/14 01:42:24;;;;;;;17.83;13.32;;;8.40;99.90;;;;;;5133963;28;20051;-87
2021/12/14 01:44:58;;;;;;;19.55;12.18;;;;;;;;;;5116621;28;20133;-87
2021/12/14 01:47:49;;;;;;;21.02;12.40;;;8.50;99.90;;;;;;5116727;28;20054;-88
2021/12/14 01:50:26;;;;;;;21.05;11.70;;;8.40;99.90;;;;;;5133872;28;20047;-88
2021/12/14 01:52:53;;;;;;;20.85;13.35;;;;;;;;;;5116405;28;20129;-88
2021/12/14 01:55:23;;;;;;;23.85;13.63;;;;;;;;;;5116836;28;20100;-88
2021/12/14 01:57:49;;;;;;;20.63;13.30;;;;;;;;;;5116481;28;20134;-88
2021/12/14 02:00:24;;;;;;;20.15;12.95;;;8.40;99.90;;;;;;5134430;28;20051;-88
2021/12/14 02:02:50;;;;;;;23.60;12.77;;;;;;;;;;5116347;28;20043;-88
2021/12/14 02:05:26;;;;;;;21.73;14.10;;;;;;;;;;5116337;28;20043;-88
2021/12/14 02:07:53;;;;;;;23.52;13.63;;;;;;;;;;5133466;28;20086;-88
2021/12/14 02:10:26;;;;;;;22.00;14.30;;;;;;;;;;5133153;28;20039;-88
2021/12/14 02:12:52;;;;;;;19.30;13.15;;;;;;;;;;5133356;28;20106;-88
2021/12/14 02:15:30;;;;;;;21.95;14.40;;;;;;;;;;5133357;28;20106;-88
2021/12/14 02:17:57;;;;;;;24.50;14.57;;;;;;;;;;5133529;28;20400;-88
2021/12/14 02:20:32;;;;;;;23.20;14.68;;;;;;;;;;5135584;28;20466;-88
2021/12/14 02:23:00;;;;;;;25.27;14.57;;;;;;;;;;5133934;28;20460;-87
2021/12/14 02:25:27;;;;;;;21.02;14.65;;;;;;;;;;5116728;28;20035;-87
2021/12/14 02:27:54;;;;;;;21.75;13.80;;;;;;;;;;5116694;28;20488;-88
2021/12/14 02:30:22;;;;;;;25.48;15.27;;;;;;;;;;5133533;28;20035;-88
2021/12/14 02:32:48;;;;;;;19.48;13.43;;;;;;;;;;5133214;28;20058;-87
2021/12/14 02:35:17;;;;;;;20.45;14.80;;;;;;;;;;5133449;27;20047;-88
2021/12/14 02:37:46;;;;;;;23.17;14.80;;;;;;;;;;5136985;27;20043;-88
2021/12/14 02:40:19;;;;;;;25.80;15.73;;;;;;;;;;5137081;27;20455;-88
2021/12/14 02:42:46;;;;;;;25.17;14.82;;;;;;;;;;5119881;27;20505;-88
2021/12/14 02:45:12;;;;;;;29.00;16.77;;;;;;;;;;5120146;27;20433;-88
2021/12/14 02:47:38;;;;;;;29.88;15.63;;;;;;;;;;5121526;27;20039;-88
2021/12/14 02:50:06;;;;;;;26.63;16.50;;;;;;;;;;5138524;27;20054;-87
2021/12/14 02:52:36;;;;;;;24.23;15.10;;;;;;;;;;5119943;27;20372;-88
2021/12/14 02:55:06;;;;;;;23.15;14.77;;;;;;;;;;5119459;27;20082;-87
2021/12/14 02:57:35;;;;;;;23.67;15.75;;;8.40;99.90;;;;;;5119014;27;20409;-87
2021/12/14 03:00:01;;;;;;;23.17;15.68;;;;;;;;;;5137477;27;20035;-87
2021/12/14 03:02:31;;;;;;;23.00;15.90;;;8.40;99.90;;;;;;5137182;27;20039;-87
2021/12/14 03:05:01;;;;;;;19.95;13.27;;;;;;;;;;5136967;27;20046;-87
2021/12/14 03:07:33;;;;;;;23.27;15.75;;;8.30;99.90;;;;;;5119344;27;20046;-87
2021/12/14 03:12:46;;;;;;;21.92;16.02;;;;;;;;;;5137143;27;20050;-87
2021/12/14 03:15:15;;;;;;;26.42;16.67;;;;;;;;;;5119570;27;20039;-87
2021/12/14 03:17:43;;;;;;;28.02;17.00;;;8.00;99.90;;;;;;5120170;27;20616;-87
2021/12/14 03:20:09;;;;;;;25.58;16.67;;;;;;;;;;5119274;27;20080;-87
2021/12/14 03:22:41;;;;;;;27.95;16.05;;;8.40;99.90;;;;;;5136683;27;20043;-87
2021/12/14 03:25:08;;;;;;;28.15;17.35;;;;;;;;;;5136900;27;20043;-87
2021/12/14 03:27:37;;;;;;;27.65;16.48;;;8.40;99.90;;;;;;5136838;27;20506;-87
2021/12/14 03:30:16;;;;;;;26.40;17.20;;;8.30;99.90;;;;;;5119889;27;20043;-87
2021/12/14 03:32:42;;;;;;;27.30;14.90;;;;;;;;;;5119852;27;20043;-87
2021/12/14 03:35:08;;;;;;;27.90;16.88;;;;;;;;;;5136569;27;20039;-87
2021/12/14 03:37:34;;;;;;;28.25;17.50;;;;;;;;;;5118731;27;20039;-88
2021/12/14 03:40:01;;;;;;;31.42;18.40;;;;;;;;;;5118795;27;20047;-87
2021/12/14 03:42:36;;;;;;;24.05;16.85;;;8.20;99.90;;;;;;5118326;27;20036;-87
2021/12/14 03:45:05;;;;;;;29.80;18.08;;;8.40;99.90;;;;;;5118561;27;20039;-87
2021/12/14 03:47:33;;;;;;;24.23;14.45;;;;;;;;;;5134963;27;20040;-87
2021/12/14 03:50:01;;;;;;;27.00;17.17;;;;;;;;;;5135970;27;20521;-87
2021/12/14 03:52:36;;;;;;;26.17;18.10;;;8.40;99.90;;;;;;5119593;27;20046;-87
2021/12/14 03:55:32;;;;;;;25.45;16.98;;;8.50;99.90;;;;;;5119188;27;20050;-87
2021/12/14 03:57:58;;;;;;;28.77;17.90;;;;;;;;;;5098159;27;20050;-87
2021/12/14 04:00:28;;;;;;;27.13;17.30;;;;;;;;;;5119202;27;20154;-87
2021/12/14 04:02:56;;;;;;;34.17;19.88;;;8.20;99.90;;;;;;5136210;27;20050;-87
2021/12/14 04:05:22;;;;;;;27.23;17.45;;;;;;;;;;5136330;27;20495;-87
2021/12/14 04:07:49;;;;;;;26.10;17.08;;;;;;;;;;5118393;27;20047;-88
2021/12/14 04:10:18;;;;;;;27.05;18.15;;;;;;;;;;5134881;27;20130;-87
2021/12/14 04:12:44;;;;;;;23.55;14.88;;;;;;;;;;5118970;27;20092;-87
2021/12/14 04:15:11;;;;;;;25.50;16.95;;;;;;;;;;5118389;27;20039;-87
2021/12/14 04:17:38;;;;;;;27.67;16.98;;;8.40;99.90;;;;;;5118772;27;20430;-87
2021/12/14 04:20:13;;;;;;;29.88;18.13;;;;;;;;;;5135748;27;20039;-87
2021/12/14 04:22:39;;;;;;;24.63;16.75;;;;;;;;;;5135846;27;20127;-87
2021/12/14 04:25:07;;;;;;;29.70;18.30;;;;;;;;;;5136432;27;20046;-87
2021/12/14 04:27:34;;;;;;;34.45;19.13;;;;;;;;;;5135017;27;20071;-86
2021/12/14 04:30:01;;;;;;;32.22;18.92;;;;;;;;;;5118830;27;20134;-87
2021/12/14 04:32:27;;;;;;;28.50;18.17;;;;;;;;;;5118762;27;20047;-87
2021/12/14 04:34:55;;;;;;;29.65;18.45;;;;;;;;;;5118117;27;20047;-87
2021/12/14 04:37:21;;;;;;;25.75;17.55;;;;;;;;;;5117594;27;20043;-87
2021/12/14 04:40:10;;;;;;;29.83;19.85;;;;;;;;;;5135251;27;20039;-87
2021/12/14 04:51:57;;;;;;;29.75;19.80;;;8.20;99.90;;;;;;5134579;27;20058;-87
2021/12/14 04:54:01;;;;;;;37.30;19.48;;;;;;;;;;5076320;28;20048;-87
2021/12/14 04:56:37;;;;;;;28.40;19.52;;;8.20;99.90;;;;;;5059943;28;20553;-87
2021/12/14 04:59:06;;;;;;;29.98;18.20;;;;;;;;;;5059185;28;20063;-87
2021/12/14 05:01:34;;;;;;;30.00;17.15;;;;;;;;;;5059840;28;20243;-87
2021/12/14 05:04:03;;;;;;;35.35;19.90;;;;;;;;;;5061244;28;20501;-87
2021/12/14 05:06:44;;;;;;;33.08;18.88;;;;;;;;;;5061434;28;20044;-87
2021/12/14 05:09:21;;;;;;;34.20;20.17;;;;;;;;;;5062541;28;20055;-87
2021/12/14 05:11:57;;;;;;;28.95;17.10;;;;;;;;;;5061309;28;20105;-87
2021/12/14 05:14:25;;;;;;;33.85;19.20;;;;;;;;;;5060476;28;20043;-87
2021/12/14 05:16:57;;;;;;;32.92;20.63;;;;;;;;;;5059437;28;20040;-87
2021/12/14 05:19:24;;;;;;;31.52;19.80;;;;;;;;;;5059857;28;20043;-87
2021/12/14 05:21:51;;;;;;;35.17;20.55;;;;;;;;;;5059258;28;20075;-87
2021/12/14 05:24:21;;;;;;;28.77;18.77;;;8.30;99.90;;;;;;5076291;28;20052;-87
2021/12/14 05:26:50;;;;;;;30.42;19.20;;;;;;;;;;5058857;28;20048;-87
2021/12/14 05:29:16;;;;;;;29.50;19.58;;;;;;;;;;5058946;28;20056;-87
2021/12/14 05:31:45;;;;;;;34.45;19.73;;;8.00;99.90;;;;;;5106190;27;20047;-87
2021/12/14 05:34:12;;;;;;;33.95;20.95;;;8.20;99.90;;;;;;5116364;28;20046;-87
2021/12/14 05:36:42;;;;;;;32.05;19.10;;;8.40;99.90;;;;;;5116928;28;20047;-88
2021/12/14 05:44:20;;;;;;;36.13;21.52;;;;;;;;;;5134593;28;20093;-87
2021/12/14 05:46:50;;;;;;;34.55;20.95;;;8.20;99.90;;;;;;5134719;28;20051;-87
2021/12/14 05:49:19;;;;;;;28.77;17.77;;;8.20;99.90;;;;;;5117030;28;20086;-87
2021/12/14 05:51:47;;;;;;;31.92;19.17;;;8.10;99.90;;;;;;5133947;28;20050;-87
2021/12/14 05:54:18;;;;;;;36.80;21.02;;;;;;;;;;5116807;28;20054;-87
2021/12/14 05:56:44;;;;;;;33.60;21.75;;;;;;;;;;5134042;28;20132;-87
2021/12/14 05:59:10;;;;;;;24.08;15.95;;;;;;;;;;5116589;28;20100;-87
2021/12/14 06:01:36;;;;;;;32.33;20.00;;;;;;;;;;5116418;28;20064;-87
2021/12/14 06:04:07;;;;;;;37.78;20.60;;;8.30;99.90;;;;;;5116472;28;20499;-87
2021/12/14 06:06:41;;;;;;;31.35;19.75;;;8.20;99.90;;;;;;5133657;28;20039;-87
2021/12/14 06:09:07;;;;;;;34.92;21.75;;;;;;;;;;5133170;28;20096;-87
2021/12/14 06:11:33;;;;;;;36.17;21.40;;;;;;;;;;5120805;27;20438;-87
2021/12/14 06:13:59;;;;;;;32.83;20.35;;;;;;;;;;5122618;27;20496;-87
2021/12/14 06:16:33;;;;;;;31.98;19.20;;;8.20;99.90;;;;;;5122068;27;20526;-87
2021/12/14 06:19:20;;;;;;;40.65;22.77;;;8.30;99.90;;;;;;5121170;27;20101;-87
2021/12/14 06:21:49;;;;;;;32.60;19.98;;;;;;;;;;5138045;27;20441;-87
2021/12/14 06:24:15;;;;;;;33.88;20.52;;;;;;;;;;5137608;27;20138;-87
2021/12/14 06:26:49;;;;;;;33.45;20.58;;;;;;;;;;5120137;27;20075;-87
2021/12/14 06:29:24;;;;;;;39.22;22.67;;;;;;;;;;5137417;27;20054;-87
2021/12/14 06:31:50;;;;;;;38.78;21.27;;;;;;;;;;5120410;27;20045;-87
2021/12/14 06:34:24;;;;;;;36.88;21.40;;;;;;;;;;5137993;27;20384;-87
2021/12/14 06:37:03;;;;;;;;;;;;;;;;;;5137266;27;20126;-87
2021/12/14 06:39:29;;;;;;;37.90;21.15;;;;;;;;;;5136782;27;19930;-87
2021/12/14 06:42:13;;;;;;;36.20;20.55;;;;;;;;;;5137048;27;20051;-87
2021/12/14 06:44:39;;;;;;;39.72;23.73;;;;;;;;;;5136483;27;20051;-87
2021/12/14 06:47:05;;;;;;;41.20;22.67;;;;;;;;;;5138088;27;20119;-87
2021/12/14 06:49:31;;;;;;;37.97;23.55;;;;;;;;;;5138596;27;20621;-87
2021/12/14 06:51:57;;;;;;;38.30;22.20;;;;;;;;;;5137270;27;20043;-87
2021/12/14 06:54:27;;;;;;;36.60;20.50;;;8.20;99.90;;;;;;5119491;27;20084;-87
2021/12/14 06:56:55;;;;;;;36.90;22.92;;;;;;;;;;5138309;27;20046;-87
2021/12/14 06:59:22;;;;;;;38.83;21.67;;;;;;;;;;5119365;27;20047;-87
2021/12/14 07:01:53;;;;;;;38.58;22.40;;;;;;;;;;5136194;27;20043;-87
2021/12/14 07:04:21;;;;;;;38.65;23.17;;;;;;;;;;5119045;27;20089;-87
2021/12/14 07:06:51;;;;;;;37.95;22.45;;;8.40;99.90;;;;;;5119466;27;20047;-87
2021/12/14 07:09:22;;;;;;;38.67;21.85;;;8.20;99.90;;;;;;5136487;27;20050;-87
2021/12/14 07:12:13;;;;;;;40.08;23.27;;;8.20;99.90;;;;;;5136430;27;20046;-87
2021/12/14 07:14:45;;;;;;;34.50;22.77;;;8.30;99.90;;;;;;5119443;27;20495;-87
2021/12/14 07:17:11;;;;;;;42.28;23.60;;;;;;;;;;5119741;27;20039;-87
2021/12/14 07:19:43;;;;;;;43.42;23.80;;;;;;;;;;5120722;27;20047;-87
2021/12/14 07:22:37;;;;;;;42.58;23.48;;;8.40;99.90;;;;;;5119151;27;20067;-87
2021/12/14 07:25:07;;;;;;;45.58;21.95;;;;;;;;;;5119793;27;20050;-87
2021/12/14 07:27:36;;;;;;;39.05;23.27;;;8.30;99.90;;;;;;5136446;27;20053;-87
2021/12/14 07:30:11;;;;;;;42.58;22.70;;;;;;;;;;5136327;27;20035;-88
2021/12/14 07:32:43;;;;;;;35.83;21.67;;;;;;;;;;5120124;27;20471;-87
2021/12/14 07:35:13;;;;;;;48.92;25.35;;;8.30;99.90;;;;;;5119700;27;20103;-87
2021/12/14 07:37:39;;;;;;;45.28;25.25;;;;;;;;;;5120165;27;20147;-87
2021/12/14 07:40:06;;;;;;;41.47;22.85;;;;;;;;;;5118839;27;20065;-87
2021/12/14 07:42:32;;;;;;;40.53;23.33;;;;;;;;;;5118962;27;20042;-87
2021/12/14 07:44:58;;;;;;;51.95;24.77;;;;;;;;;;5118602;27;20138;-87
2021/12/14 07:47:24;;;;;;;46.50;26.85;;;;;;;;;;5137178;27;20499;-87
2021/12/14 07:49:55;;;;;;;49.42;26.38;;;8.60;99.90;;;;;;5136371;27;20399;-87
2021/12/14 07:52:25;;;;;;;50.42;25.67;;;;;;;;;;5137251;27;20039;-87
2021/12/14 07:55:03;;;;;;;46.42;22.30;;;8.20;99.90;;;;;;5137098;27;20043;-87
2021/12/14 07:57:32;;;;;;;40.67;23.80;;;8.30;99.90;;;;;;5136100;27;20051;-87
2021/12/14 08:00:01;;;;;;;40.65;23.02;;;;;;;;;;5119731;27;20088;-87
2021/12/14 08:02:30;;;;;;;41.83;23.20;;;;;;;;;;5136367;27;20054;-87
2021/12/14 08:05:00;;;;;;;46.10;25.92;;;8.40;99.90;;;;;;5118844;27;20047;-87
2021/12/14 08:07:29;;;;;;;46.65;24.25;;;;;;;;;;5135773;27;20510;-87
2021/12/14 08:10:05;;;;;;;44.92;24.42;;;;;;;;;;5118602;27;20074;-87
2021/12/14 08:12:50;;;;;;;44.60;23.98;;;;;;;;;;5118730;27;20039;-87
2021/12/14 08:15:16;;;;;;;44.50;24.10;;;;;;;;;;5135603;27;20129;-87
2021/12/14 08:17:43;;;;;;;41.70;21.85;;;;;;;;;;5135372;27;20113;-87
2021/12/14 08:20:14;;;;;;;55.97;26.58;;;8.30;99.90;;;;;;5118326;27;20047;-87
2021/12/14 08:22:41;;;;;;;45.85;24.40;;;;;;;;;;5117775;27;20039;-87
2021/12/14 08:25:08;;;;;;;54.20;26.25;;;;;;;;;;5135594;27;20069;-87
2021/12/14 08:27:34;;;;;;;47.90;24.92;;;;;;;;;;5118208;27;20133;-87
2021/12/14 08:30:11;;;;;;;46.65;23.85;;;8.40;99.90;;;;;;5135207;27;20039;-87
2021/12/14 08:32:39;;;;;;;47.38;26.08;;;8.30;99.90;;;;;;5134902;27;20495;-87
2021/12/14 08:35:08;;;;;;;44.60;24.58;;;;;;;;;;5117433;27;20122;-87
2021/12/14 08:37:39;;;;;;;62.35;26.02;;;;;;;;;;5117756;27;20043;-87
2021/12/14 08:40:17;;;;;;;47.20;25.25;;;8.40;99.90;;;;;;5117628;27;20045;-87
2021/12/14 08:42:59;;;;;;;51.00;24.20;;;8.40;99.90;;;;;;5118743;27;20039;-87
2021/12/14 08:45:27;;;;;;;43.03;24.20;;;8.30;99.90;;;;;;5118431;27;20437;-87
2021/12/14 08:48:01;;;;;;;47.15;25.63;;;8.40;99.90;;;;;;5134667;27;20047;-87
2021/12/14 08:50:30;;;;;;;46.65;23.70;;;8.40;99.90;;;;;;5134912;27;20035;-87
2021/12/14 08:52:56;;;;;;;55.33;25.23;;;;;;;;;;5135351;27;20468;-87
2021/12/14 08:55:24;;;;;;;47.53;25.17;;;8.60;99.90;;;;;;5116975;27;20054;-87
2021/12/14 08:57:50;;;;;;;51.15;26.70;;;;;;;;;;5134717;27;20047;-87
2021/12/14 09:00:20;;;;;;;47.35;24.73;;;;;;;;;;5135498;27;20054;-87
2021/12/14 09:02:49;;;;;;;39.20;22.25;;;;;;;;;;5134962;27;20053;-87
2021/12/14 09:05:26;;;;;;;44.33;23.00;;;;;;;;;;5118492;27;20043;-87
2021/12/14 09:07:55;;;;;;;46.42;24.63;;;8.50;99.90;;;;;;5135054;27;20050;-87
2021/12/14 09:10:22;;;;;;;42.55;23.85;;;;;;;;;;5118708;27;20054;-87
2021/12/14 09:12:52;;;;;;;41.78;24.48;;;8.50;99.90;;;;;;5135454;27;20468;-87
2021/12/14 09:15:23;;;;;;;48.33;25.35;;;;;;;;;;5117786;27;20043;-87
2021/12/14 09:17:50;;;;;;;48.03;26.73;;;8.40;99.90;;;;;;5117297;27;20099;-87
2021/12/14 09:20:28;;;;;;;49.22;24.52;;;8.60;99.90;;;;;;5134266;27;20043;-87
2021/12/14 09:23:03;;;;;;;44.88;24.45;;;8.50;99.90;;;;;;5110758;27;20490;-87
2021/12/14 09:25:29;;;;;;;48.17;25.33;;;;;;;;;;5117758;28;20157;-87
2021/12/14 09:28:00;;;;;;;45.80;23.27;;;8.70;99.90;;;;;;5117137;27;20483;-87
2021/12/14 09:30:29;;;;;;;52.00;26.77;;;;;;;;;;5134340;27;20035;-87
2021/12/14 09:32:56;;;;;;;49.03;25.00;;;;;;;;;;5134101;27;20038;-87
2021/12/14 09:35:25;;;;;;;56.90;25.92;;;8.50;99.90;;;;;;5118105;28;20097;-88
2021/12/14 09:37:52;;;;;;;39.70;23.88;;;;;;;;;;5117663;28;20085;-86
2021/12/14 09:40:29;;;;;;;48.55;25.77;;;8.60;99.90;;;;;;5117368;28;20433;-87
2021/12/14 09:42:55;;;;;;;45.75;24.15;;;;;;;;;;5117495;28;20039;-87
2021/12/14 09:45:25;;;;;;;54.25;24.50;;;;;;;;;;5134804;27;20047;-87
2021/12/14 09:47:51;;;;;;;50.03;25.13;;;;;;;;;;5138352;27;20130;-87
2021/12/14 09:50:23;;;;;;;47.53;25.58;;;8.70;99.90;;;;;;5122434;27;20051;-87
2021/12/14 09:52:49;;;;;;;47.47;24.92;;;;;;;;;;5121011;27;20043;-87
2021/12/14 09:55:19;;;;;;;45.83;23.20;;;8.70;99.90;;;;;;5121171;27;20114;-87
2021/12/14 09:57:48;;;;;;;46.35;23.60;;;;;;;;;;5120855;27;20089;-87
2021/12/14 10:00:38;;;;;;;53.17;25.08;;;8.60;99.90;;;;;;5122045;27;20054;-87
2021/12/14 10:03:05;;;;;;;38.42;20.67;;;;;;;;;;5121120;27;20043;-87
2021/12/14 10:05:34;;;;;;;52.35;24.60;;;;;;;;;;5121544;27;20043;-87
2021/12/14 10:08:00;;;;;;;50.25;25.10;;;;;;;;;;5121019;27;20129;-87
2021/12/14 10:10:29;;;;;;;45.78;23.77;;;;;;;;;;5120594;27;20043;-87
2021/12/14 10:12:56;;;;;;;52.53;25.77;;;;;;;;;;5120427;27;20039;-87
2021/12/14 10:15:50;;;;;;;42.65;23.35;;;8.80;99.90;;;;;;5120464;27;20043;-87
2021/12/14 10:18:22;;;;;;;46.10;22.70;;;;;;;;;;5134456;27;20112;-87
2021/12/14 10:20:53;;;;;;;44.25;24.38;;;8.60;99.90;;;;;;5120677;27;20067;-87
2021/12/14 10:23:22;;;;;;;50.97;25.58;;;8.80;99.90;;;;;;5120697;27;20043;-87
2021/12/14 10:25:49;;;;;;;47.35;24.83;;;8.80;99.90;;;;;;5137467;27;20050;-87
2021/12/14 10:28:15;;;;;;;52.05;25.20;;;;;;;;;;5121027;27;20058;-87
2021/12/14 10:30:46;;;;;;;40.65;22.40;;;8.60;99.90;;;;;;5137763;27;20057;-87
2021/12/14 10:33:12;;;;;;;40.63;21.15;;;;;;;;;;5120520;27;20056;-88
2021/12/14 10:35:44;;;;;;;45.92;24.63;;;;;;;;;;5120312;27;20495;-87
2021/12/14 10:38:23;;;;;;;49.80;24.08;;;8.80;99.90;;;;;;5120500;27;20042;-87
2021/12/14 10:43:45;;;;;;;45.45;23.83;;;;;;;;;;5137966;27;20039;-87
2021/12/14 10:46:35;;;;;;;49.30;26.05;;;8.80;99.90;;;;;;5120100;27;20096;-87
2021/12/14 10:49:01;;;;;;;44.17;22.13;;;;;;;;;;5137321;27;20041;-87
2021/12/14 10:51:31;;;;;;;52.95;26.52;;;8.60;99.90;;;;;;5138807;27;20047;-87
2021/12/14 10:54:00;;;;;;;46.45;21.88;;;8.80;99.90;;;;;;5137462;27;20183;-87
2021/12/14 10:56:30;;;;;;;49.35;23.63;;;8.70;99.90;;;;;;5137486;27;20452;-86
2021/12/14 10:58:59;;;;;;;48.88;23.42;;;;;;;;;;5137460;27;20087;-87
2021/12/14 11:01:31;;;;;;;46.65;23.67;;;8.90;99.90;;;;;;5120458;27;20484;-87
2021/12/14 11:04:12;;;;;;;42.53;21.40;;;8.80;99.90;;;;;;5120469;27;20080;-87
2021/12/14 11:06:42;;;;;;;43.22;22.48;;;;;;;;;;5138116;27;20043;-87
2021/12/14 11:11:49;;;;;;;40.13;22.23;;;;;;;;;;5137362;27;20054;-87
2021/12/14 11:14:18;;;;;;;40.97;20.98;;;;;;;;;;5136526;27;20096;-87
2021/12/14 11:19:47;;;;;;;47.30;20.83;;;;;;;;;;5138351;27;20043;-87
2021/12/14 11:22:16;;;;;;;43.95;19.73;;;;;;;;;;5137265;27;20047;-87
2021/12/14 11:24:44;;;;;;;38.33;19.73;;;;;;;;;;5137857;27;20043;-87
2021/12/14 11:27:13;;;;;;;37.35;17.98;;;;;;;;;;5120828;27;20425;-87
2021/12/14 11:29:40;;;;;;;34.75;17.77;;;;;;;;;;5139176;27;20046;-87
2021/12/14 11:32:07;;;;;;;30.75;17.08;;;;;;;;;;5138588;27;20047;-87
2021/12/14 11:34:35;;;;;;;34.00;15.85;;;;;;;;;;5137807;27;20547;-87
2021/12/14 11:37:08;;;;;;;33.28;17.58;;;9.20;99.90;;;;;;5119315;27;20101;-87
2021/12/14 11:39:43;;;;;;;33.17;16.02;;;;;;;;;;5136618;27;20083;-87
2021/12/14 11:42:12;;;;;;;38.78;18.88;;;8.80;99.90;;;;;;5119272;27;20101;-87
2021/12/14 11:44:41;;;;;;;34.95;17.45;;;;;;;;;;5120015;27;20506;-87
2021/12/14 11:47:07;;;;;;;29.02;15.95;;;;;;;;;;5137171;27;20492;-87
2021/12/14 11:49:42;;;;;;;25.85;15.25;;;;;;;;;;5120222;27;20049;-87
2021/12/14 11:52:08;;;;;;;27.02;13.05;;;;;;;;;;5120394;27;20039;-87
2021/12/14 11:54:47;;;;;;;23.02;13.07;;;9.10;99.90;;;;;;5137401;27;20050;-87
2021/12/14 11:57:14;;;;;;;24.75;13.45;;;;;;;;;;5115867;27;20054;-87
2021/12/14 11:59:40;;;;;;;22.58;13.00;;;;;;;;;;5120320;27;20142;-87
2021/12/14 12:02:07;;;;;;;24.15;14.38;;;;;;;;;;5136700;27;20047;-87
2021/12/14 12:04:35;;;;;;;29.15;14.50;;;;;;;;;;5120153;27;20051;-87
2021/12/14 12:09:41;;;;;;;23.20;12.43;;;;;;;;;;5135410;27;20097;-87
2021/12/14 12:12:37;;;;;;;21.65;10.73;;;9.10;99.90;;;;;;5119139;27;20039;-87
2021/12/14 12:15:07;;;;;;;19.73;11.88;;;;;;;;;;5119163;27;20495;-88
2021/12/14 12:17:42;;;;;;;24.73;11.25;;;;;;;;;;5136281;27;20039;-87
2021/12/14 12:20:17;;;;;;;23.70;10.85;;;9.10;99.90;;;;;;5118573;27;20047;-87
2021/12/14 12:22:50;;;;;;;20.67;11.38;;;;;;;;;;5136679;27;20046;-88
2021/12/14 12:25:25;;;;;;;20.73;11.23;;;;;;;;;;5135699;27;20070;-87
2021/12/14 12:27:56;;;;;;;21.48;11.50;;;9.10;99.90;;;;;;5118839;27;20043;-88
2021/12/14 12:30:35;;;;;;;17.90;9.77;;;9.00;99.90;;;;;;5118642;27;20055;-88
2021/12/14 12:33:07;;;;;;;19.15;10.45;;;;;;;;;;5135737;27;20047;-88
2021/12/14 12:35:36;;;;;;;20.75;11.27;;;;;;;;;;5117934;27;20511;-87
2021/12/14 12:38:16;;;;;;;19.00;11.13;;;9.20;99.90;;;;;;5118790;27;20484;-87
2021/12/14 12:40:49;;;;;;;17.48;10.32;;;9.10;99.90;;;;;;5118426;27;20089;-87
2021/12/14 12:43:17;;;;;;;19.63;11.98;;;;;;;;;;5118566;27;20047;-87
2021/12/14 12:45:52;;;;;;;18.63;11.27;;;;;;;;;;5136798;27;20092;-86
2021/12/14 12:48:37;;;;;;;20.05;11.73;;;;;;;;;;5118213;27;20047;-87
2021/12/14 12:51:03;;;;;;;20.80;11.48;;;;;;;;;;5135726;27;20503;-87
2021/12/14 12:53:29;;;;;;;19.85;11.52;;;;;;;;;;5136347;27;20100;-87
2021/12/14 12:56:03;;;;;;;20.60;11.27;;;;;;;;;;5135435;27;20047;-87
2021/12/14 12:58:30;;;;;;;22.15;12.23;;;;;;;;;;5135864;27;20180;-87
2021/12/14 13:01:11;;;;;;;20.45;11.57;;;;;;;;;;5151356;27;1271334;-88
2021/12/14 13:03:42;;;;;;;23.75;12.00;;;9.30;99.90;;;;;;5139654;27;20050;-88
2021/12/14 13:06:22;;;;;;;18.65;11.30;;;9.40;99.90;;;;;;5157822;27;20050;-87
2021/12/14 13:08:55;;;;;;;20.23;11.07;;;;;;;;;;5156200;27;20050;-87
2021/12/14 13:11:31;;;;;;;20.45;11.75;;;9.30;99.90;;;;;;5138962;27;20074;-88
2021/12/14 13:14:08;;;;;;;19.30;10.98;;;;;;;;;;5138781;27;20039;-87
2021/12/14 13:16:34;;;;;;;19.65;11.05;;;;;;;;;;5138393;27;20038;-88
2021/12/14 13:19:13;;;;;;;16.85;10.27;;;9.40;99.90;;;;;;5138700;27;20065;-88
2021/12/14 13:21:51;;;;;;;18.35;10.23;;;9.20;99.90;;;;;;5138241;27;20487;-88
2021/12/14 13:24:29;;;;;;;17.52;10.07;;;9.20;99.90;;;;;;5138585;27;20035;-88
2021/12/14 13:27:03;;;;;;;18.60;9.75;;;9.20;99.90;;;;;;5155199;27;20046;-88
2021/12/14 13:29:35;;;;;;;18.77;10.75;;;;;;;;;;5138384;27;20058;-87
2021/12/14 13:32:10;;;;;;;19.60;10.95;;;;;;;;;;5155626;27;20548;-88
2021/12/14 13:34:36;;;;;;;20.85;11.02;;;;;;;;;;5155720;27;20406;-88
2021/12/14 13:37:03;;;;;;;25.88;12.00;;;;;;;;;;5156877;27;20045;-89
2021/12/14 13:39:29;;;;;;;22.90;11.60;;;;;;;;;;5138007;27;20039;-88
2021/12/14 13:41:58;;;;;;;25.05;11.77;;;;;;;;;;5137874;27;20402;-88
2021/12/14 13:44:29;;;;;;;20.38;11.48;;;;;;;;;;5138417;27;20034;-88
2021/12/14 13:46:56;;;;;;;25.73;13.45;;;;;;;;;;5138742;27;20081;-88
2021/12/14 13:49:23;;;;;;;24.48;14.43;;;;;;;;;;5138231;27;20038;-88
2021/12/14 13:51:49;;;;;;;29.40;13.63;;;;;;;;;;5174202;27;20049;-88
2021/12/14 13:54:15;;;;;;;25.23;13.32;;;;;;;;;;5155847;27;20051;-88
2021/12/14 13:56:43;;;;;;;25.73;12.32;;;;;;;;;;5173653;27;20482;-88
2021/12/14 13:59:09;;;;;;;27.40;13.65;;;9.60;99.90;;;;;;5154769;27;20096;-88
2021/12/14 14:01:42;;;;;;;26.98;13.00;;;;;;;;;;5154699;27;20093;-88
2021/12/14 14:04:13;;;;;;;29.77;14.18;;;9.60;99.90;;;;;;5173921;27;20058;-87
2021/12/14 14:06:39;;;;;;;28.13;13.98;;;;;;;;;;5154851;27;20494;-87
2021/12/14 14:09:18;;;;;;;23.25;14.10;;;;;;;;;;5174091;27;20049;-87
2021/12/14 14:11:46;;;;;;;24.88;13.57;;;;;;;;;;5146003;27;20501;-87
2021/12/14 14:14:15;;;;;;;26.27;12.73;;;;;;;;;;5141141;27;20043;-88
2021/12/14 14:17:05;;;;;;;25.17;13.38;;;;;;;;;;5159227;27;20103;-88
2021/12/14 14:19:36;;;;;;;23.73;12.85;;;9.60;99.90;;;;;;5023629;28;20049;-87
2021/12/14 14:22:12;;;;;;;25.13;13.75;;;9.40;99.90;;;;;;5022314;28;20132;-87
2021/12/14 14:24:40;;;;;;;24.85;12.75;;;;;;;;;;5055225;28;20115;-88
2021/12/14 14:27:08;;;;;;;22.85;12.10;;;;;;;;;;5038200;28;20041;-87
2021/12/14 14:29:45;;;;;;;23.20;11.65;;;;;;;;;;5037744;28;20120;-87
2021/12/14 14:32:24;;;;;;;20.00;11.50;;;;;;;;;;5021851;28;20484;-88
2021/12/14 14:34:54;;;;;;;20.42;10.77;;;9.30;99.90;;;;;;5038852;28;20053;-87
2021/12/14 14:37:28;;;;;;;16.75;11.23;;;;;;;;;;5038560;28;20084;-88
2021/12/14 14:39:58;;;;;;;22.45;11.70;;;9.40;99.90;;;;;;5038504;28;20037;-88